createdAt,value
2019-04-01T00:00:18.848Z,0.00
2019-04-01T00:01:18.837Z,0.00
2019-04-01T00:02:18.828Z,0.00
2019-04-01T00:03:18.815Z,0.00
2019-04-01T00:04:18.915Z,0.00
2019-04-01T00:05:18.793Z,0.00
2019-04-01T00:06:18.784Z,0.00
2019-04-01T00:07:18.771Z,0.00
2019-04-01T00:08:18.763Z,0.00
2019-04-01T00:09:18.753Z,0.00
2019-04-01T00:10:18.869Z,0.00
2019-04-01T00:11:18.728Z,0.00
2019-04-01T00:12:18.718Z,0.00
2019-04-01T00:13:18.719Z,0.00
2019-04-01T00:14:18.698Z,0.00
2019-04-01T00:15:18.691Z,0.00
2019-04-01T00:16:18.933Z,0.00
2019-04-01T00:17:18.663Z,0.00
2019-04-01T00:18:18.651Z,0.00
2019-04-01T00:19:18.647Z,0.00
2019-04-01T00:20:18.633Z,0.00
2019-04-01T00:21:18.619Z,0.00
2019-04-01T00:22:18.701Z,0.00
2019-04-01T00:23:18.600Z,0.00
2019-04-01T00:24:18.586Z,0.00
2019-04-01T00:25:18.575Z,0.00
2019-04-01T00:26:18.566Z,0.00
2019-04-01T00:27:18.554Z,0.00
2019-04-01T00:28:18.639Z,0.00
2019-04-01T00:29:18.535Z,0.00
2019-04-01T00:30:18.567Z,0.00
2019-04-01T00:31:18.510Z,0.00
2019-04-01T00:32:18.505Z,0.00
2019-04-01T00:33:18.492Z,0.00
2019-04-01T00:34:18.641Z,0.00
2019-04-01T00:35:18.467Z,0.00
2019-04-01T00:36:18.457Z,0.00
2019-04-01T00:37:18.513Z,0.00
2019-04-01T00:38:18.439Z,0.00
2019-04-01T00:39:18.429Z,0.00
2019-04-01T00:40:18.585Z,0.00
2019-04-01T00:41:18.403Z,0.00
2019-04-01T00:42:18.390Z,0.00
2019-04-01T00:43:18.383Z,0.00
2019-04-01T00:44:18.374Z,0.00
2019-04-01T00:45:18.360Z,0.00
2019-04-01T00:46:18.443Z,0.00
2019-04-01T00:47:18.336Z,0.00
2019-04-01T00:48:18.330Z,0.00
2019-04-01T00:49:18.315Z,0.00
2019-04-01T00:50:18.303Z,0.00
2019-04-01T00:51:18.294Z,0.00
2019-04-01T00:52:18.379Z,0.00
2019-04-01T00:53:18.328Z,0.00
2019-04-01T00:54:18.262Z,0.00
2019-04-01T00:55:18.252Z,0.00
2019-04-01T00:56:18.248Z,0.00
2019-04-01T00:57:18.233Z,0.00
2019-04-01T00:58:18.376Z,0.00
2019-04-01T00:59:18.211Z,0.00
2019-04-01T01:00:18.197Z,0.00
2019-04-01T01:01:18.185Z,0.00
2019-04-01T01:02:18.174Z,0.00
2019-04-01T01:03:18.164Z,0.00
2019-04-01T01:04:18.315Z,0.00
2019-04-01T01:05:18.142Z,0.00
2019-04-01T01:06:18.132Z,0.00
2019-04-01T01:07:18.119Z,0.00
2019-04-01T01:08:18.109Z,0.00
2019-04-01T01:09:18.097Z,0.00
2019-04-01T01:10:18.184Z,0.00
2019-04-01T01:11:18.077Z,0.00
2019-04-01T01:12:18.065Z,0.00
2019-04-01T01:13:18.055Z,0.00
2019-04-01T01:14:18.044Z,0.00
2019-04-01T01:15:18.039Z,0.00
2019-04-01T01:16:18.115Z,0.00
2019-04-01T01:17:18.013Z,0.00
2019-04-01T01:18:18.002Z,0.00
2019-04-01T01:19:17.990Z,0.00
2019-04-01T01:20:17.980Z,0.00
2019-04-01T01:21:17.968Z,0.00
2019-04-01T01:22:18.366Z,0.00
2019-04-01T01:23:17.948Z,0.00
2019-04-01T01:24:17.935Z,0.00
2019-04-01T01:25:17.926Z,0.00
2019-04-01T01:26:17.916Z,0.00
2019-04-01T01:27:17.904Z,0.00
2019-04-01T01:28:17.986Z,0.00
2019-04-01T01:29:17.884Z,0.00
2019-04-01T01:30:17.871Z,0.00
2019-04-01T01:31:17.860Z,0.00
2019-04-01T01:32:17.850Z,0.00
2019-04-01T01:33:17.839Z,0.00
2019-04-01T01:34:17.987Z,0.00
2019-04-01T01:35:17.822Z,0.00
2019-04-01T01:36:17.807Z,0.00
2019-04-01T01:37:17.797Z,0.00
2019-04-01T01:38:17.790Z,0.00
2019-04-01T01:39:17.775Z,0.00
2019-04-01T01:40:17.858Z,0.00
2019-04-01T01:41:17.755Z,0.00
2019-04-01T01:42:17.745Z,0.00
2019-04-01T01:43:17.734Z,0.00
2019-04-01T01:44:17.728Z,0.00
2019-04-01T01:45:17.718Z,0.00
2019-04-01T01:46:17.795Z,0.00
2019-04-01T01:47:17.689Z,0.00
2019-04-01T01:48:17.679Z,0.00
2019-04-01T01:49:17.668Z,0.00
2019-04-01T01:50:17.659Z,0.00
2019-04-01T01:51:17.655Z,0.00
2019-04-01T01:52:17.800Z,0.00
2019-04-01T01:53:17.623Z,0.00
2019-04-01T01:54:17.627Z,0.00
2019-04-01T01:55:17.602Z,0.00
2019-04-01T01:56:19.309Z,0.00
2019-04-01T01:57:17.606Z,0.00
2019-04-01T01:58:17.848Z,0.00
2019-04-01T01:59:17.558Z,0.00
2019-04-01T02:00:17.553Z,0.00
2019-04-01T02:01:17.547Z,0.00
2019-04-01T02:02:17.532Z,0.00
2019-04-01T02:03:17.523Z,0.00
2019-04-01T02:04:17.614Z,0.00
2019-04-01T02:05:17.506Z,0.00
2019-04-01T02:06:17.483Z,0.00
2019-04-01T02:07:17.489Z,0.00
2019-04-01T02:08:18.307Z,0.00
2019-04-01T02:09:17.451Z,0.00
2019-04-01T02:10:17.546Z,0.00
2019-04-01T02:11:17.437Z,0.00
2019-04-01T02:12:17.421Z,0.00
2019-04-01T02:13:17.414Z,0.00
2019-04-01T02:14:17.401Z,0.00
2019-04-01T02:15:17.391Z,0.00
2019-04-01T02:16:18.313Z,0.00
2019-04-01T02:17:18.310Z,0.00
2019-04-01T02:18:17.362Z,0.00
2019-04-01T02:19:17.345Z,0.00
2019-04-01T02:20:18.311Z,0.00
2019-04-01T02:21:17.345Z,0.00
2019-04-01T02:22:17.435Z,0.00
2019-04-01T02:23:17.808Z,0.00
2019-04-01T02:24:17.296Z,0.00
2019-04-01T02:25:17.283Z,0.00
2019-04-01T02:26:17.267Z,0.00
2019-04-01T02:27:17.907Z,0.00
2019-04-01T02:28:17.346Z,0.00
2019-04-01T02:29:17.237Z,0.00
2019-04-01T02:30:17.227Z,0.00
2019-04-01T02:31:17.218Z,0.00
2019-04-01T02:32:17.219Z,0.00
2019-04-01T02:33:17.199Z,0.00
2019-04-01T02:34:17.422Z,0.00
2019-04-01T02:35:17.168Z,0.00
2019-04-01T02:36:17.158Z,0.00
2019-04-01T02:37:17.146Z,0.00
2019-04-01T02:38:17.137Z,0.00
2019-04-01T02:39:17.129Z,0.00
2019-04-01T02:40:21.634Z,0.00
2019-04-01T02:41:17.120Z,0.00
2019-04-01T02:42:17.094Z,0.00
2019-04-01T02:43:17.083Z,0.00
2019-04-01T02:44:17.075Z,0.00
2019-04-01T02:45:17.061Z,0.00
2019-04-01T02:46:17.151Z,0.00
2019-04-01T02:47:17.041Z,0.00
2019-04-01T02:48:17.054Z,0.00
2019-04-01T02:49:17.019Z,0.00
2019-04-01T02:50:17.016Z,0.00
2019-04-01T02:51:17.008Z,0.00
2019-04-01T02:52:17.254Z,0.00
2019-04-01T02:53:16.975Z,0.00
2019-04-01T02:54:16.965Z,0.00
2019-04-01T02:55:16.954Z,0.00
2019-04-01T02:56:16.946Z,0.00
2019-04-01T02:57:16.934Z,0.00
2019-04-01T02:58:17.033Z,0.00
2019-04-01T02:59:16.910Z,0.00
2019-04-01T03:00:16.900Z,0.00
2019-04-01T03:01:16.889Z,0.00
2019-04-01T03:02:16.883Z,0.00
2019-04-01T03:03:16.869Z,0.00
2019-04-01T03:04:16.956Z,0.00
2019-04-01T03:05:16.846Z,0.00
2019-04-01T03:06:16.840Z,0.00
2019-04-01T03:07:16.828Z,0.00
2019-04-01T03:08:16.824Z,0.00
2019-04-01T03:09:16.806Z,0.00
2019-04-01T03:10:16.953Z,0.00
2019-04-01T03:11:16.787Z,0.00
2019-04-01T03:12:16.775Z,0.00
2019-04-01T03:13:16.778Z,0.00
2019-04-01T03:14:16.749Z,0.00
2019-04-01T03:15:16.742Z,0.00
2019-04-01T03:16:16.993Z,0.00
2019-04-01T03:17:16.716Z,0.00
2019-04-01T03:18:16.710Z,0.00
2019-04-01T03:19:16.695Z,0.00
2019-04-01T03:20:16.689Z,0.00
2019-04-01T03:21:16.679Z,0.00
2019-04-01T03:22:16.754Z,0.00
2019-04-01T03:23:16.653Z,0.00
2019-04-01T03:24:16.641Z,0.00
2019-04-01T03:25:16.630Z,0.00
2019-04-01T03:26:16.624Z,0.00
2019-04-01T03:27:17.482Z,0.00
2019-04-01T03:28:16.865Z,0.00
2019-04-01T03:29:16.598Z,0.00
2019-04-01T03:30:16.577Z,0.00
2019-04-01T03:31:16.568Z,0.00
2019-04-01T03:32:16.607Z,0.00
2019-04-01T03:33:16.569Z,0.00
2019-04-01T03:34:16.692Z,0.00
2019-04-01T03:35:16.523Z,0.00
2019-04-01T03:36:16.599Z,0.00
2019-04-01T03:37:16.501Z,0.00
2019-04-01T03:38:16.490Z,0.00
2019-04-01T03:39:16.479Z,0.00
2019-04-01T03:40:16.562Z,0.00
2019-04-01T03:41:16.459Z,0.00
2019-04-01T03:42:16.446Z,0.00
2019-04-01T03:43:16.439Z,0.00
2019-04-01T03:44:16.431Z,0.00
2019-04-01T03:45:16.422Z,0.00
2019-04-01T03:46:16.503Z,0.00
2019-04-01T03:47:16.399Z,0.00
2019-04-01T03:48:16.390Z,0.00
2019-04-01T03:49:16.378Z,0.00
2019-04-01T03:50:16.371Z,0.00
2019-04-01T03:51:16.351Z,0.00
2019-04-01T03:52:16.643Z,0.00
2019-04-01T03:53:16.343Z,0.00
2019-04-01T03:54:16.363Z,0.00
2019-04-01T03:55:16.312Z,0.00
2019-04-01T03:56:16.305Z,0.00
2019-04-01T03:57:16.288Z,0.00
2019-04-01T03:58:16.548Z,0.00
2019-04-01T03:59:16.269Z,0.00
2019-04-01T04:00:16.270Z,0.00
2019-04-01T04:01:16.253Z,0.00
2019-04-01T04:02:16.241Z,0.00
2019-04-01T04:03:16.224Z,0.00
2019-04-01T04:04:16.309Z,0.00
2019-04-01T04:05:16.200Z,0.00
2019-04-01T04:06:16.194Z,0.00
2019-04-01T04:07:16.179Z,0.00
2019-04-01T04:08:16.176Z,0.00
2019-04-01T04:09:16.159Z,0.00
2019-04-01T04:10:16.437Z,0.00
2019-04-01T04:11:16.137Z,0.00
2019-04-01T04:12:16.126Z,0.00
2019-04-01T04:13:16.115Z,0.00
2019-04-01T04:14:16.104Z,0.00
2019-04-01T04:15:16.097Z,0.00
2019-04-01T04:16:16.247Z,0.00
2019-04-01T04:17:16.070Z,0.00
2019-04-01T04:18:16.165Z,0.00
2019-04-01T04:19:16.068Z,0.00
2019-04-01T04:20:16.043Z,0.00
2019-04-01T04:21:16.035Z,0.00
2019-04-01T04:22:16.117Z,0.00
2019-04-01T04:23:16.007Z,0.00
2019-04-01T04:24:15.997Z,0.00
2019-04-01T04:25:15.988Z,0.00
2019-04-01T04:26:15.977Z,0.00
2019-04-01T04:27:15.970Z,4.00
2019-04-01T04:28:16.355Z,4.00
2019-04-01T04:29:15.943Z,0.00
2019-04-01T04:30:15.931Z,0.00
2019-04-01T04:31:15.920Z,0.00
2019-04-01T04:32:15.909Z,0.00
2019-04-01T04:33:16.024Z,0.00
2019-04-01T04:34:15.981Z,0.00
2019-04-01T04:35:15.877Z,0.00
2019-04-01T04:36:15.870Z,4.00
2019-04-01T04:37:15.856Z,4.00
2019-04-01T04:38:15.853Z,0.00
2019-04-01T04:39:15.839Z,0.00
2019-04-01T04:40:15.985Z,0.00
2019-04-01T04:41:15.812Z,0.00
2019-04-01T04:42:15.801Z,0.00
2019-04-01T04:43:15.791Z,0.00
2019-04-01T04:44:15.781Z,0.00
2019-04-01T04:45:15.769Z,0.00
2019-04-01T04:46:16.011Z,0.00
2019-04-01T04:47:15.749Z,0.00
2019-04-01T04:48:15.744Z,4.00
2019-04-01T04:49:15.724Z,4.00
2019-04-01T04:50:16.398Z,4.00
2019-04-01T04:51:15.793Z,4.00
2019-04-01T04:52:15.798Z,4.00
2019-04-01T04:53:15.682Z,4.00
2019-04-01T04:54:15.670Z,8.00
2019-04-01T04:55:15.659Z,8.00
2019-04-01T04:56:15.649Z,8.00
2019-04-01T04:57:15.641Z,4.00
2019-04-01T04:58:15.720Z,4.00
2019-04-01T04:59:15.615Z,4.00
2019-04-01T05:00:15.607Z,4.00
2019-04-01T05:01:15.596Z,4.00
2019-04-01T05:02:15.590Z,4.00
2019-04-01T05:03:15.574Z,8.00
2019-04-01T05:04:15.737Z,8.00
2019-04-01T05:05:15.640Z,8.00
2019-04-01T05:06:15.545Z,4.00
2019-04-01T05:07:15.533Z,4.00
2019-04-01T05:08:15.530Z,4.00
2019-04-01T05:09:15.508Z,8.00
2019-04-01T05:10:15.655Z,4.00
2019-04-01T05:11:15.485Z,4.00
2019-04-01T05:12:15.474Z,4.00
2019-04-01T05:13:15.462Z,8.00
2019-04-01T05:14:15.455Z,8.00
2019-04-01T05:15:15.441Z,8.00
2019-04-01T05:16:15.590Z,8.00
2019-04-01T05:17:15.420Z,8.00
2019-04-01T05:18:15.409Z,8.00
2019-04-01T05:19:15.401Z,4.00
2019-04-01T05:20:16.644Z,8.00
2019-04-01T05:21:15.377Z,8.00
2019-04-01T05:22:15.542Z,4.00
2019-04-01T05:23:15.353Z,4.00
2019-04-01T05:24:15.344Z,4.00
2019-04-01T05:25:15.334Z,8.00
2019-04-01T05:26:15.327Z,8.00
2019-04-01T05:27:15.318Z,8.00
2019-04-01T05:28:15.393Z,8.00
2019-04-01T05:29:15.289Z,8.00
2019-04-01T05:30:15.280Z,12.00
2019-04-01T05:31:15.287Z,12.00
2019-04-01T05:32:15.311Z,12.00
2019-04-01T05:33:15.254Z,12.00
2019-04-01T05:34:15.409Z,16.00
2019-04-01T05:35:15.227Z,12.00
2019-04-01T05:36:15.217Z,16.00
2019-04-01T05:37:15.205Z,16.00
2019-04-01T05:38:15.193Z,16.00
2019-04-01T05:39:15.180Z,16.00
2019-04-01T05:40:15.265Z,16.00
2019-04-01T05:41:15.165Z,16.00
2019-04-01T05:42:15.149Z,20.00
2019-04-01T05:43:15.141Z,16.00
2019-04-01T05:44:15.134Z,12.00
2019-04-01T05:45:15.115Z,16.00
2019-04-01T05:46:15.200Z,16.00
2019-04-01T05:47:15.094Z,16.00
2019-04-01T05:48:15.086Z,16.00
2019-04-01T05:49:15.072Z,16.00
2019-04-01T05:50:15.064Z,16.00
2019-04-01T05:51:15.051Z,16.00
2019-04-01T05:52:15.291Z,12.00
2019-04-01T05:53:15.031Z,12.00
2019-04-01T05:54:15.018Z,16.00
2019-04-01T05:55:15.007Z,16.00
2019-04-01T05:56:14.998Z,12.00
2019-04-01T05:57:14.988Z,16.00
2019-04-01T05:58:15.388Z,12.00
2019-04-01T05:59:14.962Z,12.00
2019-04-01T06:00:14.953Z,12.00
2019-04-01T06:01:14.942Z,12.00
2019-04-01T06:02:14.933Z,12.00
2019-04-01T06:03:14.920Z,16.00
2019-04-01T06:04:15.004Z,12.00
2019-04-01T06:05:14.898Z,16.00
2019-04-01T06:06:14.892Z,16.00
2019-04-01T06:07:14.876Z,16.00
2019-04-01T06:08:14.868Z,16.00
2019-04-01T06:09:14.858Z,20.00
2019-04-01T06:10:15.004Z,20.00
2019-04-01T06:11:14.833Z,20.00
2019-04-01T06:12:14.821Z,16.00
2019-04-01T06:13:14.811Z,16.00
2019-04-01T06:14:14.800Z,12.00
2019-04-01T06:15:14.790Z,12.00
2019-04-01T06:16:15.013Z,12.00
2019-04-01T06:17:14.767Z,8.00
2019-04-01T06:18:14.762Z,8.00
2019-04-01T06:19:14.750Z,8.00
2019-04-01T06:20:14.735Z,8.00
2019-04-01T06:21:14.726Z,8.00
2019-04-01T06:22:14.807Z,12.00
2019-04-01T06:23:14.701Z,12.00
2019-04-01T06:24:14.690Z,12.00
2019-04-01T06:25:14.685Z,16.00
2019-04-01T06:26:14.670Z,12.00
2019-04-01T06:27:15.125Z,12.00
2019-04-01T06:28:14.886Z,16.00
2019-04-01T06:29:14.637Z,16.00
2019-04-01T06:30:14.628Z,16.00
2019-04-01T06:31:14.615Z,16.00
2019-04-01T06:32:14.608Z,16.00
2019-04-01T06:33:14.601Z,20.00
2019-04-01T06:34:14.679Z,20.00
2019-04-01T06:35:14.571Z,20.00
2019-04-01T06:36:14.560Z,20.00
2019-04-01T06:37:14.550Z,20.00
2019-04-01T06:38:14.543Z,20.00
2019-04-01T06:39:14.529Z,20.00
2019-04-01T06:40:14.810Z,20.00
2019-04-01T06:41:14.505Z,20.00
2019-04-01T06:42:14.493Z,20.00
2019-04-01T06:43:14.484Z,16.00
2019-04-01T06:44:14.476Z,16.00
2019-04-01T06:45:14.522Z,20.00
2019-04-01T06:46:14.549Z,16.00
2019-04-01T06:47:14.445Z,16.00
2019-04-01T06:48:14.440Z,20.00
2019-04-01T06:49:14.419Z,16.00
2019-04-01T06:50:14.411Z,20.00
2019-04-01T06:51:14.398Z,24.00
2019-04-01T06:52:14.500Z,24.00
2019-04-01T06:53:14.376Z,24.00
2019-04-01T06:54:14.445Z,20.00
2019-04-01T06:55:14.354Z,20.00
2019-04-01T06:56:14.426Z,24.00
2019-04-01T06:57:14.342Z,24.00
2019-04-01T06:58:14.426Z,20.00
2019-04-01T06:59:14.315Z,20.00
2019-04-01T07:00:14.300Z,20.00
2019-04-01T07:01:14.289Z,20.00
2019-04-01T07:02:14.282Z,20.00
2019-04-01T07:03:14.271Z,24.00
2019-04-01T07:04:14.351Z,24.00
2019-04-01T07:05:14.247Z,20.00
2019-04-01T07:06:14.240Z,20.00
2019-04-01T07:07:19.147Z,16.00
2019-04-01T07:08:15.214Z,16.00
2019-04-01T07:09:14.218Z,16.00
2019-04-01T07:10:14.353Z,16.00
2019-04-01T07:11:14.180Z,16.00
2019-04-01T07:12:14.175Z,12.00
2019-04-01T07:13:14.160Z,16.00
2019-04-01T07:14:14.150Z,16.00
2019-04-01T07:15:14.147Z,12.00
2019-04-01T07:16:16.055Z,12.00
2019-04-01T07:17:14.117Z,12.00
2019-04-01T07:18:14.108Z,12.00
2019-04-01T07:19:14.095Z,12.00
2019-04-01T07:20:14.089Z,8.00
2019-04-01T07:21:14.081Z,8.00
2019-04-01T07:22:14.161Z,4.00
2019-04-01T07:23:14.051Z,8.00
2019-04-01T07:24:14.041Z,8.00
2019-04-01T07:25:14.030Z,4.00
2019-04-01T07:26:14.022Z,8.00
2019-04-01T07:27:14.022Z,8.00
2019-04-01T07:28:14.165Z,8.00
2019-04-01T07:29:13.986Z,8.00
2019-04-01T07:30:13.976Z,8.00
2019-04-01T07:31:13.966Z,12.00
2019-04-01T07:32:14.653Z,12.00
2019-04-01T07:33:13.947Z,20.00
2019-04-01T07:34:14.095Z,20.00
2019-04-01T07:35:13.923Z,20.00
2019-04-01T07:36:13.915Z,24.00
2019-04-01T07:37:13.901Z,20.00
2019-04-01T07:38:13.891Z,20.00
2019-04-01T07:39:13.880Z,20.00
2019-04-01T07:40:14.228Z,20.00
2019-04-01T07:41:13.857Z,20.00
2019-04-01T07:42:13.851Z,16.00
2019-04-01T07:43:15.110Z,12.00
2019-04-01T07:44:13.825Z,8.00
2019-04-01T07:45:13.821Z,8.00
2019-04-01T07:46:13.969Z,8.00
2019-04-01T07:47:13.791Z,4.00
2019-04-01T07:48:13.792Z,8.00
2019-04-01T07:49:13.779Z,8.00
2019-04-01T07:50:13.763Z,12.00
2019-04-01T07:51:13.772Z,12.00
2019-04-01T07:52:13.903Z,12.00
2019-04-01T07:53:13.727Z,12.00
2019-04-01T07:54:13.720Z,12.00
2019-04-01T07:55:13.706Z,12.00
2019-04-01T07:56:13.695Z,16.00
2019-04-01T07:57:13.684Z,16.00
2019-04-01T07:58:13.767Z,12.00
2019-04-01T07:59:13.661Z,16.00
2019-04-01T08:00:13.650Z,12.00
2019-04-01T08:01:13.639Z,16.00
2019-04-01T08:02:13.642Z,16.00
2019-04-01T08:03:13.619Z,16.00
2019-04-01T08:04:13.704Z,16.00
2019-04-01T08:05:13.596Z,20.00
2019-04-01T08:06:13.587Z,16.00
2019-04-01T08:07:13.734Z,20.00
2019-04-01T08:08:13.571Z,20.00
2019-04-01T08:09:13.559Z,20.00
2019-04-01T08:10:13.814Z,24.00
2019-04-01T08:11:13.545Z,24.00
2019-04-01T08:12:13.523Z,24.00
2019-04-01T08:13:13.518Z,24.00
2019-04-01T08:14:13.504Z,24.00
2019-04-01T08:15:13.492Z,24.00
2019-04-01T08:16:13.722Z,24.00
2019-04-01T08:17:13.468Z,24.00
2019-04-01T08:18:13.464Z,20.00
2019-04-01T08:19:13.447Z,20.00
2019-04-01T08:20:13.438Z,16.00
2019-04-01T08:21:13.427Z,16.00
2019-04-01T08:22:13.507Z,16.00
2019-04-01T08:23:13.412Z,12.00
2019-04-01T08:24:13.392Z,16.00
2019-04-01T08:25:13.395Z,16.00
2019-04-01T08:26:13.371Z,16.00
2019-04-01T08:27:13.370Z,20.00
2019-04-01T08:28:13.528Z,16.00
2019-04-01T08:29:13.338Z,20.00
2019-04-01T08:30:13.336Z,20.00
2019-04-01T08:31:13.575Z,24.00
2019-04-01T08:32:14.034Z,24.00
2019-04-01T08:33:13.320Z,24.00
2019-04-01T08:34:13.464Z,24.00
2019-04-01T08:35:13.281Z,20.00
2019-04-01T08:36:13.270Z,20.00
2019-04-01T08:37:13.255Z,20.00
2019-04-01T08:38:13.263Z,16.00
2019-04-01T08:39:13.250Z,16.00
2019-04-01T08:40:13.348Z,16.00
2019-04-01T08:41:13.216Z,16.00
2019-04-01T08:42:13.250Z,12.00
2019-04-01T08:43:13.189Z,12.00
2019-04-01T08:44:13.205Z,8.00
2019-04-01T08:45:14.277Z,12.00
2019-04-01T08:46:13.159Z,8.00
2019-04-01T08:47:13.155Z,16.00
2019-04-01T08:48:13.156Z,12.00
2019-04-01T08:49:13.137Z,8.00
2019-04-01T08:50:13.122Z,12.00
2019-04-01T08:51:13.373Z,12.00
2019-04-01T08:52:13.101Z,12.00
2019-04-01T08:53:13.090Z,16.00
2019-04-01T08:54:13.085Z,16.00
2019-04-01T08:55:13.067Z,20.00
2019-04-01T08:56:13.057Z,20.00
2019-04-01T08:57:13.219Z,20.00
2019-04-01T08:58:13.035Z,20.00
2019-04-01T08:59:13.032Z,20.00
2019-04-01T09:00:13.027Z,20.00
2019-04-01T09:01:13.002Z,20.00
2019-04-01T09:02:18.008Z,20.00
2019-04-01T09:03:14.065Z,24.00
2019-04-01T09:04:12.967Z,28.00
2019-04-01T09:05:12.964Z,28.00
2019-04-01T09:06:13.073Z,32.00
2019-04-01T09:07:12.931Z,36.00
2019-04-01T09:08:12.932Z,36.00
2019-04-01T09:09:13.013Z,52.00
2019-04-01T09:10:12.896Z,48.00
2019-04-01T09:11:12.887Z,52.00
2019-04-01T09:12:12.872Z,48.00
2019-04-01T09:13:12.861Z,44.00
2019-04-01T09:14:12.851Z,36.00
2019-04-01T09:15:13.114Z,32.00
2019-04-01T09:16:12.828Z,28.00
2019-04-01T09:17:12.816Z,32.00
2019-04-01T09:18:12.805Z,32.00
2019-04-01T09:19:12.797Z,24.00
2019-04-01T09:20:12.788Z,28.00
2019-04-01T09:21:12.864Z,28.00
2019-04-01T09:22:12.762Z,28.00
2019-04-01T09:23:12.750Z,32.00
2019-04-01T09:24:12.740Z,28.00
2019-04-01T09:25:12.729Z,32.00
2019-04-01T09:26:12.721Z,40.00
2019-04-01T09:27:12.804Z,40.00
2019-04-01T09:28:12.699Z,56.00
2019-04-01T09:29:12.686Z,48.00
2019-04-01T09:30:12.681Z,48.00
2019-04-01T09:31:12.663Z,56.00
2019-04-01T09:32:12.671Z,60.00
2019-04-01T09:33:12.939Z,68.00
2019-04-01T09:34:12.638Z,68.00
2019-04-01T09:35:12.623Z,52.00
2019-04-01T09:36:12.611Z,48.00
2019-04-01T09:37:12.599Z,68.00
2019-04-01T09:38:12.601Z,64.00
2019-04-01T09:39:12.672Z,56.00
2019-04-01T09:40:12.567Z,52.00
2019-04-01T09:41:13.407Z,36.00
2019-04-01T09:42:12.620Z,40.00
2019-04-01T09:43:14.270Z,40.00
2019-04-01T09:44:12.528Z,44.00
2019-04-01T09:45:12.671Z,68.00
2019-04-01T09:46:12.504Z,44.00
2019-04-01T09:47:12.493Z,76.00
2019-04-01T09:48:12.482Z,48.00
2019-04-01T09:49:12.475Z,68.00
2019-04-01T09:50:12.493Z,68.00
2019-04-01T09:51:12.612Z,72.00
2019-04-01T09:52:12.440Z,68.00
2019-04-01T09:53:12.429Z,72.00
2019-04-01T09:54:12.420Z,48.00
2019-04-01T09:55:12.408Z,44.00
2019-04-01T09:56:12.399Z,68.00
2019-04-01T09:57:17.660Z,68.00
2019-04-01T09:58:13.373Z,52.00
2019-04-01T09:59:12.366Z,68.00
2019-04-01T10:00:12.355Z,72.00
2019-04-01T10:01:12.350Z,64.00
2019-04-01T10:02:12.340Z,36.00
2019-04-01T10:03:12.443Z,36.00
2019-04-01T10:04:12.319Z,32.00
2019-04-01T10:05:12.301Z,36.00
2019-04-01T10:06:12.296Z,36.00
2019-04-01T10:07:12.279Z,40.00
2019-04-01T10:08:12.269Z,40.00
2019-04-01T10:09:12.697Z,68.00
2019-04-01T10:10:12.247Z,40.00
2019-04-01T10:11:12.801Z,40.00
2019-04-01T10:12:12.226Z,36.00
2019-04-01T10:13:12.214Z,40.00
2019-04-01T10:14:12.204Z,36.00
2019-04-01T10:15:12.466Z,40.00
2019-04-01T10:16:12.181Z,44.00
2019-04-01T10:17:12.171Z,72.00
2019-04-01T10:18:12.159Z,72.00
2019-04-01T10:19:12.184Z,40.00
2019-04-01T10:20:12.144Z,44.00
2019-04-01T10:21:12.221Z,80.00
2019-04-01T10:22:12.116Z,80.00
2019-04-01T10:23:12.106Z,76.00
2019-04-01T10:24:12.100Z,32.00
2019-04-01T10:25:12.095Z,36.00
2019-04-01T10:26:12.076Z,44.00
2019-04-01T10:27:12.158Z,52.00
2019-04-01T10:28:12.052Z,48.00
2019-04-01T10:29:12.040Z,84.00
2019-04-01T10:30:12.031Z,84.00
2019-04-01T10:31:12.024Z,84.00
2019-04-01T10:32:12.010Z,64.00
2019-04-01T10:33:12.270Z,40.00
2019-04-01T10:34:11.988Z,40.00
2019-04-01T10:35:11.977Z,40.00
2019-04-01T10:36:11.968Z,44.00
2019-04-01T10:37:11.957Z,56.00
2019-04-01T10:38:11.944Z,88.00
2019-04-01T10:39:12.028Z,88.00
2019-04-01T10:40:11.926Z,92.00
2019-04-01T10:41:11.918Z,96.00
2019-04-01T10:42:11.901Z,52.00
2019-04-01T10:43:11.956Z,68.00
2019-04-01T10:44:11.879Z,48.00
2019-04-01T10:45:11.967Z,64.00
2019-04-01T10:46:12.420Z,100.00
2019-04-01T10:47:12.026Z,92.00
2019-04-01T10:48:11.844Z,96.00
2019-04-01T10:49:11.901Z,96.00
2019-04-01T10:50:11.905Z,84.00
2019-04-01T10:51:12.084Z,108.00
2019-04-01T10:52:11.874Z,108.00
2019-04-01T10:53:11.820Z,56.00
2019-04-01T10:54:11.777Z,64.00
2019-04-01T10:55:11.837Z,80.00
2019-04-01T10:56:11.761Z,56.00
2019-04-01T10:57:11.929Z,44.00
2019-04-01T10:58:11.760Z,48.00
2019-04-01T10:59:11.822Z,108.00
2019-04-01T11:00:11.752Z,104.00
2019-04-01T11:01:11.797Z,108.00
2019-04-01T11:02:11.719Z,84.00
2019-04-01T11:03:11.835Z,76.00
2019-04-01T11:04:11.697Z,64.00
2019-04-01T11:05:11.654Z,52.00
2019-04-01T11:06:11.672Z,64.00
2019-04-01T11:07:11.734Z,104.00
2019-04-01T11:08:11.668Z,68.00
2019-04-01T11:09:12.086Z,112.00
2019-04-01T11:10:12.008Z,112.00
2019-04-01T11:11:11.591Z,60.00
2019-04-01T11:12:11.580Z,56.00
2019-04-01T11:13:11.566Z,56.00
2019-04-01T11:14:11.556Z,56.00
2019-04-01T11:15:15.424Z,60.00
2019-04-01T11:16:11.537Z,116.00
2019-04-01T11:17:11.533Z,84.00
2019-04-01T11:18:12.218Z,76.00
2019-04-01T11:19:11.502Z,80.00
2019-04-01T11:20:11.513Z,104.00
2019-04-01T11:21:11.585Z,108.00
2019-04-01T11:22:11.552Z,120.00
2019-04-01T11:23:11.463Z,120.00
2019-04-01T11:24:11.451Z,96.00
2019-04-01T11:25:11.445Z,84.00
2019-04-01T11:26:11.425Z,80.00
2019-04-01T11:27:11.533Z,116.00
2019-04-01T11:28:11.408Z,72.00
2019-04-01T11:29:11.393Z,116.00
2019-04-01T11:30:13.742Z,104.00
2019-04-01T11:31:11.400Z,64.00
2019-04-01T11:32:13.383Z,60.00
2019-04-01T11:33:11.552Z,120.00
2019-04-01T11:34:11.390Z,80.00
2019-04-01T11:35:11.382Z,112.00
2019-04-01T11:36:11.372Z,84.00
2019-04-01T11:37:11.339Z,76.00
2019-04-01T11:38:11.332Z,104.00
2019-04-01T11:39:11.408Z,116.00
2019-04-01T11:40:12.242Z,72.00
2019-04-01T11:41:11.424Z,80.00
2019-04-01T11:42:11.309Z,140.00
2019-04-01T11:43:11.280Z,84.00
2019-04-01T11:44:11.232Z,136.00
2019-04-01T11:45:11.591Z,120.00
2019-04-01T11:46:12.678Z,136.00
2019-04-01T11:47:11.217Z,104.00
2019-04-01T11:48:11.227Z,100.00
2019-04-01T11:49:11.222Z,80.00
2019-04-01T11:50:11.214Z,96.00
2019-04-01T11:51:11.468Z,132.00
2019-04-01T11:52:11.203Z,124.00
2019-04-01T11:53:11.135Z,124.00
2019-04-01T11:54:11.123Z,112.00
2019-04-01T11:55:11.115Z,96.00
2019-04-01T11:56:11.202Z,72.00
2019-04-01T11:57:11.357Z,80.00
2019-04-01T11:58:11.080Z,72.00
2019-04-01T11:59:11.072Z,76.00
2019-04-01T12:00:12.728Z,92.00
2019-04-01T12:01:11.047Z,104.00
2019-04-01T12:02:11.037Z,80.00
2019-04-01T12:03:11.279Z,76.00
2019-04-01T12:04:11.909Z,132.00
2019-04-01T12:05:11.011Z,88.00
2019-04-01T12:06:10.996Z,88.00
2019-04-01T12:07:10.984Z,72.00
2019-04-01T12:08:10.971Z,64.00
2019-04-01T12:09:11.122Z,64.00
2019-04-01T12:10:10.953Z,60.00
2019-04-01T12:11:10.942Z,60.00
2019-04-01T12:12:22.674Z,56.00
2019-04-01T12:13:12.012Z,56.00
2019-04-01T12:14:10.907Z,52.00
2019-04-01T12:15:12.458Z,60.00
2019-04-01T12:16:10.887Z,52.00
2019-04-01T12:17:10.875Z,48.00
2019-04-01T12:18:10.872Z,44.00
2019-04-01T12:19:10.863Z,32.00
2019-04-01T12:20:10.869Z,28.00
2019-04-01T12:21:11.015Z,28.00
2019-04-01T12:22:11.340Z,28.00
2019-04-01T12:23:10.817Z,24.00
2019-04-01T12:24:10.815Z,24.00
2019-04-01T12:25:10.790Z,24.00
2019-04-01T12:26:15.450Z,20.00
2019-04-01T12:27:11.861Z,24.00
2019-04-01T12:28:10.763Z,20.00
2019-04-01T12:29:12.299Z,20.00
2019-04-01T12:30:10.735Z,20.00
2019-04-01T12:31:12.808Z,20.00
2019-04-01T12:32:10.712Z,24.00
2019-04-01T12:33:10.798Z,20.00
2019-04-01T12:34:10.692Z,20.00
2019-04-01T12:35:10.688Z,20.00
2019-04-01T12:36:11.795Z,20.00
2019-04-01T12:37:10.682Z,20.00
2019-04-01T12:38:10.646Z,16.00
2019-04-01T12:39:10.904Z,20.00
2019-04-01T12:40:10.631Z,16.00
2019-04-01T12:41:10.615Z,16.00
2019-04-01T12:42:10.607Z,16.00
2019-04-01T12:43:10.594Z,16.00
2019-04-01T12:44:11.267Z,16.00
2019-04-01T12:45:10.994Z,16.00
2019-04-01T12:46:10.560Z,16.00
2019-04-01T12:47:10.549Z,16.00
2019-04-01T12:48:10.538Z,16.00
2019-04-01T12:49:10.527Z,12.00
2019-04-01T12:50:10.517Z,16.00
2019-04-01T12:51:10.602Z,12.00
2019-04-01T12:52:10.496Z,12.00
2019-04-01T12:53:10.483Z,12.00
2019-04-01T12:54:10.472Z,12.00
2019-04-01T12:55:10.465Z,12.00
2019-04-01T12:56:10.459Z,12.00
2019-04-01T12:57:10.607Z,12.00
2019-04-01T12:58:10.434Z,16.00
2019-04-01T12:59:10.420Z,16.00
2019-04-01T13:00:10.410Z,12.00
2019-04-01T13:01:10.403Z,12.00
2019-04-01T13:02:10.395Z,12.00
2019-04-01T13:03:10.475Z,12.00